sensor_id;sensor_type;location;lat;lon;timestamp;temperature;humidity
5802;DHT22;2927;49.366;8.530;2022-12-29T00:01:20;9.20;1.00
5802;DHT22;2927;49.366;8.530;2022-12-29T00:03:46;9.20;1.00
5802;DHT22;2927;49.366;8.530;2022-12-29T00:06:12;9.30;1.00
5802;DHT22;2927;49.366;8.530;2022-12-29T00:08:37;9.40;1.00
5802;DHT22;2927;49.366;8.530;2022-12-29T00:11:12;9.30;1.00
5802;DHT22;2927;49.366;8.530;2022-12-29T00:13:38;9.40;1.00
5802;DHT22;2927;49.366;8.530;2022-12-29T00:16:23;9.30;1.00
5802;DHT22;2927;49.366;8.530;2022-12-29T00:18:49;9.40;1.00
5802;DHT22;2927;49.366;8.530;2022-12-29T00:21:17;9.30;1.00
5802;DHT22;2927;49.366;8.530;2022-12-29T00:24:02;9.30;1.00
5802;DHT22;2927;49.366;8.530;2022-12-29T00:26:48;9.40;1.00
5802;DHT22;2927;49.366;8.530;2022-12-29T00:29:43;9.40;1.00
5802;DHT22;2927;49.366;8.530;2022-12-29T00:32:28;9.40;1.00
5802;DHT22;2927;49.366;8.530;2022-12-29T00:35:20;9.40;1.00
5802;DHT22;2927;49.366;8.530;2022-12-29T00:37:47;9.40;1.00
5802;DHT22;2927;49.366;8.530;2022-12-29T00:40:31;9.30;1.00
5802;DHT22;2927;49.366;8.530;2022-12-29T00:43:16;9.40;1.00
5802;DHT22;2927;49.366;8.530;2022-12-29T00:46:00;9.40;1.00
5802;DHT22;2927;49.366;8.530;2022-12-29T00:48:25;9.40;1.00
5802;DHT22;2927;49.366;8.530;2022-12-29T00:51:10;9.40;1.00
5802;DHT22;2927;49.366;8.530;2022-12-29T00:53:35;9.40;1.00
5802;DHT22;2927;49.366;8.530;2022-12-29T00:56:01;9.50;1.00
5802;DHT22;2927;49.366;8.530;2022-12-29T00:58:28;9.50;1.00
5802;DHT22;2927;49.366;8.530;2022-12-29T01:01:01;9.60;1.00
5802;DHT22;2927;49.366;8.530;2022-12-29T01:03:28;9.60;1.00
5802;DHT22;2927;49.366;8.530;2022-12-29T01:05:53;9.60;1.00
5802;DHT22;2927;49.366;8.530;2022-12-29T01:08:19;9.70;1.00
5802;DHT22;2927;49.366;8.530;2022-12-29T01:10:44;9.80;1.00
5802;DHT22;2927;49.366;8.530;2022-12-29T01:13:10;9.80;1.00
5802;DHT22;2927;49.366;8.530;2022-12-29T01:15:35;9.90;1.00
5802;DHT22;2927;49.366;8.530;2022-12-29T01:20:37;10.30;1.00
5802;DHT22;2927;49.366;8.530;2022-12-29T01:25:38;10.40;1.00
5802;DHT22;2927;49.366;8.530;2022-12-29T01:30:39;10.40;1.00
5802;DHT22;2927;49.366;8.530;2022-12-29T01:33:04;10.50;1.00
5802;DHT22;2927;49.366;8.530;2022-12-29T01:35:30;10.60;1.00
5802;DHT22;2927;49.366;8.530;2022-12-29T01:37:56;10.70;1.00
5802;DHT22;2927;49.366;8.530;2022-12-29T01:40:21;10.70;1.00
5802;DHT22;2927;49.366;8.530;2022-12-29T01:42:47;10.80;8.60
5802;DHT22;2927;49.366;8.530;2022-12-29T01:45:14;10.80;12.80
5802;DHT22;2927;49.366;8.530;2022-12-29T01:47:44;10.90;36.90
5802;DHT22;2927;49.366;8.530;2022-12-29T01:50:49;11.00;14.20
5802;DHT22;2927;49.366;8.530;2022-12-29T01:53:25;11.00;14.60
5802;DHT22;2927;49.366;8.530;2022-12-29T01:55:55;10.90;84.50
5802;DHT22;2927;49.366;8.530;2022-12-29T01:58:26;10.90;99.90
5802;DHT22;2927;49.366;8.530;2022-12-29T02:00:54;10.90;99.90
5802;DHT22;2927;49.366;8.530;2022-12-29T02:05:59;10.70;99.90
5802;DHT22;2927;49.366;8.530;2022-12-29T02:08:28;10.70;99.90
5802;DHT22;2927;49.366;8.530;2022-12-29T02:10:56;10.70;99.90
5802;DHT22;2927;49.366;8.530;2022-12-29T02:13:24;10.70;99.90
5802;DHT22;2927;49.366;8.530;2022-12-29T02:16:09;10.70;99.90
5802;DHT22;2927;49.366;8.530;2022-12-29T02:24:44;10.80;99.90
5802;DHT22;2927;49.366;8.530;2022-12-29T02:30:55;10.80;99.90
5802;DHT22;2927;49.366;8.530;2022-12-29T02:41:37;10.80;99.90
5802;DHT22;2927;49.366;8.530;2022-12-29T02:44:30;10.80;99.90
5802;DHT22;2927;49.366;8.530;2022-12-29T02:47:18;10.70;99.90
5802;DHT22;2927;49.366;8.530;2022-12-29T02:52:48;10.70;99.90
5802;DHT22;2927;49.366;8.530;2022-12-29T02:55:17;10.90;99.90
5802;DHT22;2927;49.366;8.530;2022-12-29T02:57:42;10.80;99.90
5802;DHT22;2927;49.366;8.530;2022-12-29T03:00:12;10.70;99.90
5802;DHT22;2927;49.366;8.530;2022-12-29T03:03:40;10.80;99.90
5802;DHT22;2927;49.366;8.530;2022-12-29T03:05:57;10.80;99.90
5802;DHT22;2927;49.366;8.530;2022-12-29T03:08:48;10.80;99.90
5802;DHT22;2927;49.366;8.530;2022-12-29T03:11:15;10.80;99.90
5802;DHT22;2927;49.366;8.530;2022-12-29T03:14:09;10.80;99.90
5802;DHT22;2927;49.366;8.530;2022-12-29T03:19:42;10.80;99.90
5802;DHT22;2927;49.366;8.530;2022-12-29T03:22:17;10.80;99.90
5802;DHT22;2927;49.366;8.530;2022-12-29T03:24:55;10.80;99.90
5802;DHT22;2927;49.366;8.530;2022-12-29T03:27:39;10.80;99.90
5802;DHT22;2927;49.366;8.530;2022-12-29T03:30:06;10.80;99.90
5802;DHT22;2927;49.366;8.530;2022-12-29T03:32:36;10.70;99.90
5802;DHT22;2927;49.366;8.530;2022-12-29T03:35:03;10.70;99.90
5802;DHT22;2927;49.366;8.530;2022-12-29T03:37:45;10.60;99.90
5802;DHT22;2927;49.366;8.530;2022-12-29T03:40:14;10.60;99.90
5802;DHT22;2927;49.366;8.530;2022-12-29T03:42:40;10.50;99.90
5802;DHT22;2927;49.366;8.530;2022-12-29T03:45:07;10.50;99.90
5802;DHT22;2927;49.366;8.530;2022-12-29T03:50:11;10.60;99.90
5802;DHT22;2927;49.366;8.530;2022-12-29T03:52:37;10.60;99.90
5802;DHT22;2927;49.366;8.530;2022-12-29T03:55:02;10.60;99.90
5802;DHT22;2927;49.366;8.530;2022-12-29T03:57:28;10.70;99.90
5802;DHT22;2927;49.366;8.530;2022-12-29T03:59:53;10.70;99.90
5802;DHT22;2927;49.366;8.530;2022-12-29T04:02:19;10.70;99.90
5802;DHT22;2927;49.366;8.530;2022-12-29T04:04:44;10.70;99.90
5802;DHT22;2927;49.366;8.530;2022-12-29T04:07:10;10.80;99.90
5802;DHT22;2927;49.366;8.530;2022-12-29T04:09:36;10.70;96.80
5802;DHT22;2927;49.366;8.530;2022-12-29T04:12:02;10.70;98.30
5802;DHT22;2927;49.366;8.530;2022-12-29T04:14:27;10.70;96.50
5802;DHT22;2927;49.366;8.530;2022-12-29T04:22:05;10.70;90.00
5802;DHT22;2927;49.366;8.530;2022-12-29T04:24:31;10.70;88.90
5802;DHT22;2927;49.366;8.530;2022-12-29T04:26:56;10.80;53.20
5802;DHT22;2927;49.366;8.530;2022-12-29T04:29:22;10.80;1.00
5802;DHT22;2927;49.366;8.530;2022-12-29T04:31:47;10.90;1.00
5802;DHT22;2927;49.366;8.530;2022-12-29T04:34:13;11.00;1.00
5802;DHT22;2927;49.366;8.530;2022-12-29T04:36:38;10.90;1.00
5802;DHT22;2927;49.366;8.530;2022-12-29T04:39:06;11.00;1.00
5802;DHT22;2927;49.366;8.530;2022-12-29T04:41:31;11.00;1.00
5802;DHT22;2927;49.366;8.530;2022-12-29T04:43:57;11.00;1.00
5802;DHT22;2927;49.366;8.530;2022-12-29T04:46:22;11.00;1.00
5802;DHT22;2927;49.366;8.530;2022-12-29T04:48:48;11.00;1.00
5802;DHT22;2927;49.366;8.530;2022-12-29T04:51:14;11.00;1.00
5802;DHT22;2927;49.366;8.530;2022-12-29T04:53:39;11.00;1.00
5802;DHT22;2927;49.366;8.530;2022-12-29T04:56:05;11.10;1.00
5802;DHT22;2927;49.366;8.530;2022-12-29T04:58:31;11.10;1.00
5802;DHT22;2927;49.366;8.530;2022-12-29T05:00:56;11.00;1.00
5802;DHT22;2927;49.366;8.530;2022-12-29T05:03:22;11.10;1.00
5802;DHT22;2927;49.366;8.530;2022-12-29T05:05:47;11.10;1.00
5802;DHT22;2927;49.366;8.530;2022-12-29T05:08:13;11.10;1.00
5802;DHT22;2927;49.366;8.530;2022-12-29T05:10:38;11.10;1.00
5802;DHT22;2927;49.366;8.530;2022-12-29T05:13:04;11.10;1.00
5802;DHT22;2927;49.366;8.530;2022-12-29T05:15:29;11.10;1.00
5802;DHT22;2927;49.366;8.530;2022-12-29T05:17:55;11.10;1.00
5802;DHT22;2927;49.366;8.530;2022-12-29T05:20:20;11.20;1.00
5802;DHT22;2927;49.366;8.530;2022-12-29T05:22:46;11.20;1.00
5802;DHT22;2927;49.366;8.530;2022-12-29T05:25:12;11.30;1.00
5802;DHT22;2927;49.366;8.530;2022-12-29T05:27:37;11.30;1.00
5802;DHT22;2927;49.366;8.530;2022-12-29T05:30:03;11.30;1.00
5802;DHT22;2927;49.366;8.530;2022-12-29T05:32:29;11.20;1.00
5802;DHT22;2927;49.366;8.530;2022-12-29T05:34:54;11.20;1.00
5802;DHT22;2927;49.366;8.530;2022-12-29T05:37:20;11.10;1.00
5802;DHT22;2927;49.366;8.530;2022-12-29T05:39:45;11.10;1.00
5802;DHT22;2927;49.366;8.530;2022-12-29T05:42:11;11.20;1.00
5802;DHT22;2927;49.366;8.530;2022-12-29T05:44:36;11.20;1.00
5802;DHT22;2927;49.366;8.530;2022-12-29T05:47:02;11.20;1.00
5802;DHT22;2927;49.366;8.530;2022-12-29T05:49:28;11.20;1.00
5802;DHT22;2927;49.366;8.530;2022-12-29T05:51:53;11.20;1.00
5802;DHT22;2927;49.366;8.530;2022-12-29T05:54:19;11.10;1.00
5802;DHT22;2927;49.366;8.530;2022-12-29T05:56:44;11.10;1.00
5802;DHT22;2927;49.366;8.530;2022-12-29T05:59:10;11.10;1.00
5802;DHT22;2927;49.366;8.530;2022-12-29T06:01:35;11.10;1.00
5802;DHT22;2927;49.366;8.530;2022-12-29T06:04:01;11.10;1.00
5802;DHT22;2927;49.366;8.530;2022-12-29T06:06:27;11.10;1.00
5802;DHT22;2927;49.366;8.530;2022-12-29T06:08:52;11.00;1.00
5802;DHT22;2927;49.366;8.530;2022-12-29T06:11:18;11.00;1.00
5802;DHT22;2927;49.366;8.530;2022-12-29T06:13:43;11.00;1.00
5802;DHT22;2927;49.366;8.530;2022-12-29T06:16:09;11.00;1.00
5802;DHT22;2927;49.366;8.530;2022-12-29T06:18:35;10.90;1.00
5802;DHT22;2927;49.366;8.530;2022-12-29T06:21:01;10.90;1.00
5802;DHT22;2927;49.366;8.530;2022-12-29T06:23:27;11.00;1.00
5802;DHT22;2927;49.366;8.530;2022-12-29T06:25:53;11.00;1.00
5802;DHT22;2927;49.366;8.530;2022-12-29T06:28:18;11.00;1.00
5802;DHT22;2927;49.366;8.530;2022-12-29T06:30:47;11.00;1.00
5802;DHT22;2927;49.366;8.530;2022-12-29T06:33:14;11.00;1.00
5802;DHT22;2927;49.366;8.530;2022-12-29T06:35:40;10.90;1.00
5802;DHT22;2927;49.366;8.530;2022-12-29T06:38:06;10.90;1.00
5802;DHT22;2927;49.366;8.530;2022-12-29T06:40:32;10.90;1.00
5802;DHT22;2927;49.366;8.530;2022-12-29T06:42:57;10.90;1.00
5802;DHT22;2927;49.366;8.530;2022-12-29T06:45:23;10.90;1.00
5802;DHT22;2927;49.366;8.530;2022-12-29T06:47:48;10.90;1.00
5802;DHT22;2927;49.366;8.530;2022-12-29T06:50:14;11.00;1.00
5802;DHT22;2927;49.366;8.530;2022-12-29T06:52:40;10.90;1.00
5802;DHT22;2927;49.366;8.530;2022-12-29T06:55:06;11.00;1.00
5802;DHT22;2927;49.366;8.530;2022-12-29T06:57:31;11.00;1.00
5802;DHT22;2927;49.366;8.530;2022-12-29T06:59:57;11.00;1.00
5802;DHT22;2927;49.366;8.530;2022-12-29T07:02:22;11.00;1.00
5802;DHT22;2927;49.366;8.530;2022-12-29T07:04:53;11.00;1.00
5802;DHT22;2927;49.366;8.530;2022-12-29T07:07:19;11.00;1.00
5802;DHT22;2927;49.366;8.530;2022-12-29T07:09:46;11.00;1.00
5802;DHT22;2927;49.366;8.530;2022-12-29T07:12:12;11.10;1.00
5802;DHT22;2927;49.366;8.530;2022-12-29T07:14:37;11.00;1.00
5802;DHT22;2927;49.366;8.530;2022-12-29T07:17:03;11.00;1.00
5802;DHT22;2927;49.366;8.530;2022-12-29T07:19:32;10.90;1.00
5802;DHT22;2927;49.366;8.530;2022-12-29T07:21:57;11.00;1.00
5802;DHT22;2927;49.366;8.530;2022-12-29T07:24:23;10.90;1.00
5802;DHT22;2927;49.366;8.530;2022-12-29T07:26:51;10.90;1.00
5802;DHT22;2927;49.366;8.530;2022-12-29T07:29:17;10.90;1.00
5802;DHT22;2927;49.366;8.530;2022-12-29T07:31:42;11.00;1.00
5802;DHT22;2927;49.366;8.530;2022-12-29T07:34:08;10.90;1.00
5802;DHT22;2927;49.366;8.530;2022-12-29T07:36:34;11.00;1.00
5802;DHT22;2927;49.366;8.530;2022-12-29T07:39:00;10.90;1.00
5802;DHT22;2927;49.366;8.530;2022-12-29T07:41:25;10.90;1.00
5802;DHT22;2927;49.366;8.530;2022-12-29T07:43:51;11.00;1.00
5802;DHT22;2927;49.366;8.530;2022-12-29T07:46:18;11.10;1.00
5802;DHT22;2927;49.366;8.530;2022-12-29T07:48:43;11.00;1.00
5802;DHT22;2927;49.366;8.530;2022-12-29T07:51:09;11.00;1.00
5802;DHT22;2927;49.366;8.530;2022-12-29T07:53:35;11.10;1.00
5802;DHT22;2927;49.366;8.530;2022-12-29T07:56:00;11.10;1.00
5802;DHT22;2927;49.366;8.530;2022-12-29T07:58:26;11.10;1.00
5802;DHT22;2927;49.366;8.530;2022-12-29T08:00:55;11.10;1.00
5802;DHT22;2927;49.366;8.530;2022-12-29T08:03:21;11.10;1.00
5802;DHT22;2927;49.366;8.530;2022-12-29T08:05:47;11.10;1.00
5802;DHT22;2927;49.366;8.530;2022-12-29T08:08:13;11.20;1.00
5802;DHT22;2927;49.366;8.530;2022-12-29T08:10:38;11.20;1.00
5802;DHT22;2927;49.366;8.530;2022-12-29T08:13:04;11.30;99.90
5802;DHT22;2927;49.366;8.530;2022-12-29T08:15:29;11.40;99.90
5802;DHT22;2927;49.366;8.530;2022-12-29T08:17:55;11.40;99.90
5802;DHT22;2927;49.366;8.530;2022-12-29T08:20:20;11.40;99.90
5802;DHT22;2927;49.366;8.530;2022-12-29T08:22:46;11.50;99.90
5802;DHT22;2927;49.366;8.530;2022-12-29T08:25:11;11.40;99.90
5802;DHT22;2927;49.366;8.530;2022-12-29T08:27:37;11.50;99.90
5802;DHT22;2927;49.366;8.530;2022-12-29T08:30:03;11.50;99.90
5802;DHT22;2927;49.366;8.530;2022-12-29T08:32:29;11.50;99.90
5802;DHT22;2927;49.366;8.530;2022-12-29T08:34:55;11.50;15.70
5802;DHT22;2927;49.366;8.530;2022-12-29T08:37:21;11.60;92.70
5802;DHT22;2927;49.366;8.530;2022-12-29T08:39:47;11.60;99.90
5802;DHT22;2927;49.366;8.530;2022-12-29T08:42:13;11.60;46.70
5802;DHT22;2927;49.366;8.530;2022-12-29T08:44:38;11.60;40.30
5802;DHT22;2927;49.366;8.530;2022-12-29T08:47:04;11.70;1.00
5802;DHT22;2927;49.366;8.530;2022-12-29T08:49:30;11.70;1.00
5802;DHT22;2927;49.366;8.530;2022-12-29T08:51:55;11.70;77.50
5802;DHT22;2927;49.366;8.530;2022-12-29T08:54:21;11.80;1.00
5802;DHT22;2927;49.366;8.530;2022-12-29T08:56:46;12.00;1.00
5802;DHT22;2927;49.366;8.530;2022-12-29T08:59:12;12.00;1.00
5802;DHT22;2927;49.366;8.530;2022-12-29T09:01:37;12.00;1.00
5802;DHT22;2927;49.366;8.530;2022-12-29T09:04:06;12.00;1.00
5802;DHT22;2927;49.366;8.530;2022-12-29T09:06:31;11.90;1.00
5802;DHT22;2927;49.366;8.530;2022-12-29T09:08:57;12.00;99.90
5802;DHT22;2927;49.366;8.530;2022-12-29T09:11:24;11.90;1.00
5802;DHT22;2927;49.366;8.530;2022-12-29T09:13:51;11.90;99.90
5802;DHT22;2927;49.366;8.530;2022-12-29T09:16:18;12.20;1.00
5802;DHT22;2927;49.366;8.530;2022-12-29T09:18:44;12.10;49.60
5802;DHT22;2927;49.366;8.530;2022-12-29T09:21:10;12.20;1.00
5802;DHT22;2927;49.366;8.530;2022-12-29T09:23:36;12.30;99.90
5802;DHT22;2927;49.366;8.530;2022-12-29T09:26:02;12.20;71.00
5802;DHT22;2927;49.366;8.530;2022-12-29T09:28:29;12.20;99.90
5802;DHT22;2927;49.366;8.530;2022-12-29T09:57:47;12.20;1.00
5802;DHT22;2927;49.366;8.530;2022-12-29T10:00:18;12.20;1.00
5802;DHT22;2927;49.366;8.530;2022-12-29T10:02:48;12.20;1.00
5802;DHT22;2927;49.366;8.530;2022-12-29T10:23:45;12.50;1.00
5802;DHT22;2927;49.366;8.530;2022-12-29T10:26:21;12.50;1.00
5802;DHT22;2927;49.366;8.530;2022-12-29T10:29:21;12.40;1.00
5802;DHT22;2927;49.366;8.530;2022-12-29T10:31:54;12.40;1.00
5802;DHT22;2927;49.366;8.530;2022-12-29T10:34:34;12.40;1.00
5802;DHT22;2927;49.366;8.530;2022-12-29T10:47:31;12.40;1.00
5802;DHT22;2927;49.366;8.530;2022-12-29T10:50:00;12.40;1.00
5802;DHT22;2927;49.366;8.530;2022-12-29T10:52:26;12.40;1.00
5802;DHT22;2927;49.366;8.530;2022-12-29T10:57:40;12.40;1.00
5802;DHT22;2927;49.366;8.530;2022-12-29T11:05:41;12.50;1.00
5802;DHT22;2927;49.366;8.530;2022-12-29T11:08:20;12.60;1.00
5802;DHT22;2927;49.366;8.530;2022-12-29T11:23:42;12.90;44.20
5802;DHT22;2927;49.366;8.530;2022-12-29T11:31:21;13.00;99.90
5802;DHT22;2927;49.366;8.530;2022-12-29T11:33:47;13.00;1.00
5802;DHT22;2927;49.366;8.530;2022-12-29T11:41:26;12.90;1.00
5802;DHT22;2927;49.366;8.530;2022-12-29T11:54:31;12.90;1.00
5802;DHT22;2927;49.366;8.530;2022-12-29T12:04:51;12.70;1.00
5802;DHT22;2927;49.366;8.530;2022-12-29T12:07:37;12.60;1.00
5802;DHT22;2927;49.366;8.530;2022-12-29T12:10:05;12.50;99.90
5802;DHT22;2927;49.366;8.530;2022-12-29T12:12:48;12.40;1.00
5802;DHT22;2927;49.366;8.530;2022-12-29T12:15:46;12.60;99.90
5802;DHT22;2927;49.366;8.530;2022-12-29T12:21:08;12.70;1.00
5802;DHT22;2927;49.366;8.530;2022-12-29T12:23:59;12.70;1.00
5802;DHT22;2927;49.366;8.530;2022-12-29T12:26:36;12.70;1.00
5802;DHT22;2927;49.366;8.530;2022-12-29T12:29:10;12.70;99.90
5802;DHT22;2927;49.366;8.530;2022-12-29T12:31:45;12.70;99.90
5802;DHT22;2927;49.366;8.530;2022-12-29T12:34:39;12.80;99.90
5802;DHT22;2927;49.366;8.530;2022-12-29T12:40:07;12.80;99.90
5802;DHT22;2927;49.366;8.530;2022-12-29T12:42:53;12.70;99.90
5802;DHT22;2927;49.366;8.530;2022-12-29T12:49:01;12.50;1.00
5802;DHT22;2927;49.366;8.530;2022-12-29T12:51:45;12.50;1.00
5802;DHT22;2927;49.366;8.530;2022-12-29T13:00:21;12.30;1.00
5802;DHT22;2927;49.366;8.530;2022-12-29T13:03:19;12.00;1.00
5802;DHT22;2927;49.366;8.530;2022-12-29T13:09:08;11.80;56.50
5802;DHT22;2927;49.366;8.530;2022-12-29T13:17:30;11.70;99.90
5802;DHT22;2927;49.366;8.530;2022-12-29T13:20:18;11.80;99.90
5802;DHT22;2927;49.366;8.530;2022-12-29T13:28:09;11.70;99.90
5802;DHT22;2927;49.366;8.530;2022-12-29T13:36:36;11.80;99.90
5802;DHT22;2927;49.366;8.530;2022-12-29T13:39:13;11.80;99.90
5802;DHT22;2927;49.366;8.530;2022-12-29T13:41:48;11.70;99.90
5802;DHT22;2927;49.366;8.530;2022-12-29T13:44:20;11.60;99.90
5802;DHT22;2927;49.366;8.530;2022-12-29T13:46:47;11.60;99.90
5802;DHT22;2927;49.366;8.530;2022-12-29T13:49:20;11.50;99.90
5802;DHT22;2927;49.366;8.530;2022-12-29T13:51:50;11.50;99.90
5802;DHT22;2927;49.366;8.530;2022-12-29T13:54:39;11.50;99.90
5802;DHT22;2927;49.366;8.530;2022-12-29T13:57:30;11.50;99.90
5802;DHT22;2927;49.366;8.530;2022-12-29T14:00:15;11.50;99.90
5802;DHT22;2927;49.366;8.530;2022-12-29T14:03:00;11.40;99.90
5802;DHT22;2927;49.366;8.530;2022-12-29T14:05:31;11.40;99.90
5802;DHT22;2927;49.366;8.530;2022-12-29T14:08:05;11.40;99.90
5802;DHT22;2927;49.366;8.530;2022-12-29T14:10:49;11.40;99.90
5802;DHT22;2927;49.366;8.530;2022-12-29T14:13:23;11.40;99.90
5802;DHT22;2927;49.366;8.530;2022-12-29T14:15:53;11.50;99.90
5802;DHT22;2927;49.366;8.530;2022-12-29T14:18:21;11.50;99.90
5802;DHT22;2927;49.366;8.530;2022-12-29T14:21:03;11.50;99.90
5802;DHT22;2927;49.366;8.530;2022-12-29T14:23:47;11.40;99.90
5802;DHT22;2927;49.366;8.530;2022-12-29T14:26:34;11.40;99.90
5802;DHT22;2927;49.366;8.530;2022-12-29T14:32:35;11.30;99.90
5802;DHT22;2927;49.366;8.530;2022-12-29T14:35:38;11.20;99.90
5802;DHT22;2927;49.366;8.530;2022-12-29T14:38:13;11.00;99.90
5802;DHT22;2927;49.366;8.530;2022-12-29T14:40:40;10.90;99.90
5802;DHT22;2927;49.366;8.530;2022-12-29T14:43:12;10.80;99.90
5802;DHT22;2927;49.366;8.530;2022-12-29T14:45:40;10.70;99.90
5802;DHT22;2927;49.366;8.530;2022-12-29T14:48:42;10.60;99.90
5802;DHT22;2927;49.366;8.530;2022-12-29T14:51:38;10.60;99.90
5802;DHT22;2927;49.366;8.530;2022-12-29T14:57:28;10.50;99.90
5802;DHT22;2927;49.366;8.530;2022-12-29T15:02:33;10.40;99.90
5802;DHT22;2927;49.366;8.530;2022-12-29T15:05:00;10.40;99.90
5802;DHT22;2927;49.366;8.530;2022-12-29T15:07:29;10.40;99.90
5802;DHT22;2927;49.366;8.530;2022-12-29T15:10:00;10.40;99.90
5802;DHT22;2927;49.366;8.530;2022-12-29T15:12:43;10.40;99.90
5802;DHT22;2927;49.366;8.530;2022-12-29T15:15:27;10.40;99.90
5802;DHT22;2927;49.366;8.530;2022-12-29T15:17:55;10.30;99.90
5802;DHT22;2927;49.366;8.530;2022-12-29T15:22:57;10.20;99.90
5802;DHT22;2927;49.366;8.530;2022-12-29T15:25:23;10.20;99.90
5802;DHT22;2927;49.366;8.530;2022-12-29T15:27:57;10.20;99.90
5802;DHT22;2927;49.366;8.530;2022-12-29T15:30:23;10.20;99.90
5802;DHT22;2927;49.366;8.530;2022-12-29T15:32:49;10.10;99.90
5802;DHT22;2927;49.366;8.530;2022-12-29T15:37:51;10.20;99.90
5802;DHT22;2927;49.366;8.530;2022-12-29T15:40:31;10.10;99.90
5802;DHT22;2927;49.366;8.530;2022-12-29T15:43:21;10.00;99.90
5802;DHT22;2927;49.366;8.530;2022-12-29T15:45:50;9.90;99.90
5802;DHT22;2927;49.366;8.530;2022-12-29T15:48:22;9.80;99.90
5802;DHT22;2927;49.366;8.530;2022-12-29T15:50:48;9.80;99.90
5802;DHT22;2927;49.366;8.530;2022-12-29T15:53:30;9.70;99.90
5802;DHT22;2927;49.366;8.530;2022-12-29T15:56:00;9.60;99.90
5802;DHT22;2927;49.366;8.530;2022-12-29T15:58:30;9.60;99.90
5802;DHT22;2927;49.366;8.530;2022-12-29T16:01:01;9.50;99.90
5802;DHT22;2927;49.366;8.530;2022-12-29T16:03:32;9.60;99.90
5802;DHT22;2927;49.366;8.530;2022-12-29T16:06:21;9.60;99.90
5802;DHT22;2927;49.366;8.530;2022-12-29T16:09:42;9.60;99.90
5802;DHT22;2927;49.366;8.530;2022-12-29T16:11:49;9.60;99.90
5802;DHT22;2927;49.366;8.530;2022-12-29T16:14:40;9.60;99.90
5802;DHT22;2927;49.366;8.530;2022-12-29T16:17:09;9.60;99.90
5802;DHT22;2927;49.366;8.530;2022-12-29T16:19:39;9.60;99.90
5802;DHT22;2927;49.366;8.530;2022-12-29T16:22:11;9.60;99.90
5802;DHT22;2927;49.366;8.530;2022-12-29T16:24:39;9.60;99.90
5802;DHT22;2927;49.366;8.530;2022-12-29T16:27:18;9.60;99.90
5802;DHT22;2927;49.366;8.530;2022-12-29T16:29:46;9.50;99.90
5802;DHT22;2927;49.366;8.530;2022-12-29T16:32:27;9.50;99.90
5802;DHT22;2927;49.366;8.530;2022-12-29T16:35:10;9.50;99.90
5802;DHT22;2927;49.366;8.530;2022-12-29T16:37:36;9.60;99.90
5802;DHT22;2927;49.366;8.530;2022-12-29T16:42:48;9.70;99.90
5802;DHT22;2927;49.366;8.530;2022-12-29T16:50:31;9.80;99.90
5802;DHT22;2927;49.366;8.530;2022-12-29T16:52:58;9.80;99.90
5802;DHT22;2927;49.366;8.530;2022-12-29T16:55:23;9.80;99.90
5802;DHT22;2927;49.366;8.530;2022-12-29T16:57:51;9.80;99.90
5802;DHT22;2927;49.366;8.530;2022-12-29T17:00:27;9.80;99.90
5802;DHT22;2927;49.366;8.530;2022-12-29T17:02:56;9.80;99.90
5802;DHT22;2927;49.366;8.530;2022-12-29T17:05:22;9.80;99.90
5802;DHT22;2927;49.366;8.530;2022-12-29T17:07:48;9.70;99.90
5802;DHT22;2927;49.366;8.530;2022-12-29T17:10:14;9.80;99.90
5802;DHT22;2927;49.366;8.530;2022-12-29T17:12:41;9.80;99.90
5802;DHT22;2927;49.366;8.530;2022-12-29T17:15:11;9.80;99.90
5802;DHT22;2927;49.366;8.530;2022-12-29T17:17:49;9.80;99.90
5802;DHT22;2927;49.366;8.530;2022-12-29T17:20:22;9.80;99.90
5802;DHT22;2927;49.366;8.530;2022-12-29T17:22:49;9.70;99.90
5802;DHT22;2927;49.366;8.530;2022-12-29T17:25:28;9.70;99.90
5802;DHT22;2927;49.366;8.530;2022-12-29T17:28:04;9.70;99.90
5802;DHT22;2927;49.366;8.530;2022-12-29T17:30:33;9.70;99.90
5802;DHT22;2927;49.366;8.530;2022-12-29T17:33:05;9.60;99.90
5802;DHT22;2927;49.366;8.530;2022-12-29T17:35:33;9.60;99.90
5802;DHT22;2927;49.366;8.530;2022-12-29T17:37:59;9.60;99.90
5802;DHT22;2927;49.366;8.530;2022-12-29T17:40:29;9.60;99.90
5802;DHT22;2927;49.366;8.530;2022-12-29T17:42:57;9.60;99.90
5802;DHT22;2927;49.366;8.530;2022-12-29T17:45:28;9.60;99.90
5802;DHT22;2927;49.366;8.530;2022-12-29T17:47:55;9.60;99.90
5802;DHT22;2927;49.366;8.530;2022-12-29T17:50:23;9.60;99.90
5802;DHT22;2927;49.366;8.530;2022-12-29T17:52:55;9.60;99.90
5802;DHT22;2927;49.366;8.530;2022-12-29T17:55:22;9.60;99.90
5802;DHT22;2927;49.366;8.530;2022-12-29T17:57:48;9.60;99.90
5802;DHT22;2927;49.366;8.530;2022-12-29T18:00:19;9.60;99.90
5802;DHT22;2927;49.366;8.530;2022-12-29T18:02:46;9.60;99.90
5802;DHT22;2927;49.366;8.530;2022-12-29T18:05:22;9.50;99.90
5802;DHT22;2927;49.366;8.530;2022-12-29T18:07:50;9.50;99.90
5802;DHT22;2927;49.366;8.530;2022-12-29T18:10:17;9.50;99.90
5802;DHT22;2927;49.366;8.530;2022-12-29T18:12:44;9.40;99.90
5802;DHT22;2927;49.366;8.530;2022-12-29T18:15:26;9.40;99.90
5802;DHT22;2927;49.366;8.530;2022-12-29T18:20:28;9.40;99.90
5802;DHT22;2927;49.366;8.530;2022-12-29T18:22:54;9.40;99.90
5802;DHT22;2927;49.366;8.530;2022-12-29T18:25:24;9.40;99.90
5802;DHT22;2927;49.366;8.530;2022-12-29T18:27:50;9.40;99.90
5802;DHT22;2927;49.366;8.530;2022-12-29T18:30:16;9.30;99.90
5802;DHT22;2927;49.366;8.530;2022-12-29T18:32:42;9.20;99.90
5802;DHT22;2927;49.366;8.530;2022-12-29T18:36:17;9.20;99.90
5802;DHT22;2927;49.366;8.530;2022-12-29T18:38:11;9.20;99.90
5802;DHT22;2927;49.366;8.530;2022-12-29T18:40:37;9.10;99.90
5802;DHT22;2927;49.366;8.530;2022-12-29T18:43:02;9.10;99.90
5802;DHT22;2927;49.366;8.530;2022-12-29T18:45:30;9.10;99.90
5802;DHT22;2927;49.366;8.530;2022-12-29T18:47:59;9.10;99.90
5802;DHT22;2927;49.366;8.530;2022-12-29T18:50:25;9.10;99.90
5802;DHT22;2927;49.366;8.530;2022-12-29T18:52:51;9.10;99.90
5802;DHT22;2927;49.366;8.530;2022-12-29T18:55:24;9.10;99.90
5802;DHT22;2927;49.366;8.530;2022-12-29T18:57:51;9.00;99.90
5802;DHT22;2927;49.366;8.530;2022-12-29T19:00:19;9.00;99.90
5802;DHT22;2927;49.366;8.530;2022-12-29T19:02:45;9.00;99.90
5802;DHT22;2927;49.366;8.530;2022-12-29T19:05:28;9.00;99.90
5802;DHT22;2927;49.366;8.530;2022-12-29T19:07:54;9.00;99.90
5802;DHT22;2927;49.366;8.530;2022-12-29T19:10:22;9.00;99.90
5802;DHT22;2927;49.366;8.530;2022-12-29T19:12:48;9.00;99.90
5802;DHT22;2927;49.366;8.530;2022-12-29T19:15:29;9.00;99.90
5802;DHT22;2927;49.366;8.530;2022-12-29T19:17:57;9.00;99.90
5802;DHT22;2927;49.366;8.530;2022-12-29T19:20:39;9.00;99.90
5802;DHT22;2927;49.366;8.530;2022-12-29T19:23:20;9.00;99.90
5802;DHT22;2927;49.366;8.530;2022-12-29T19:25:46;9.00;99.90
5802;DHT22;2927;49.366;8.530;2022-12-29T19:28:24;9.00;99.90
5802;DHT22;2927;49.366;8.530;2022-12-29T19:30:50;9.00;99.90
5802;DHT22;2927;49.366;8.530;2022-12-29T19:33:16;9.00;99.90
5802;DHT22;2927;49.366;8.530;2022-12-29T19:35:42;9.00;99.90
5802;DHT22;2927;49.366;8.530;2022-12-29T19:38:09;9.00;99.90
5802;DHT22;2927;49.366;8.530;2022-12-29T19:40:36;9.00;99.90
5802;DHT22;2927;49.366;8.530;2022-12-29T19:43:02;9.00;99.90
5802;DHT22;2927;49.366;8.530;2022-12-29T19:45:27;9.00;99.90
5802;DHT22;2927;49.366;8.530;2022-12-29T19:47:53;9.00;99.90
5802;DHT22;2927;49.366;8.530;2022-12-29T19:50:19;9.00;99.90
5802;DHT22;2927;49.366;8.530;2022-12-29T19:52:45;9.00;99.90
5802;DHT22;2927;49.366;8.530;2022-12-29T19:55:15;9.00;99.90
5802;DHT22;2927;49.366;8.530;2022-12-29T19:57:41;9.00;99.90
5802;DHT22;2927;49.366;8.530;2022-12-29T20:00:08;9.00;99.90
5802;DHT22;2927;49.366;8.530;2022-12-29T20:02:33;9.00;99.90
5802;DHT22;2927;49.366;8.530;2022-12-29T20:04:59;9.00;99.90